sensor_id;sensor_type;location;lat;lon;timestamp;temperature;humidity
68128;SHT30;54931;52.098;21.006;2023-11-21T00:00:05;0.76;89.91
68128;SHT30;54931;52.098;21.006;2023-11-21T00:02:59;0.76;89.91
68128;SHT30;54931;52.098;21.006;2023-11-21T00:05:26;0.77;89.97
68128;SHT30;54931;52.098;21.006;2023-11-21T00:07:55;0.76;89.88
68128;SHT30;54931;52.098;21.006;2023-11-21T00:10:22;0.75;89.88
68128;SHT30;54931;52.098;21.006;2023-11-21T00:12:50;0.72;89.80
68128;SHT30;54931;52.098;21.006;2023-11-21T00:15:18;0.72;89.86
68128;SHT30;54931;52.098;21.006;2023-11-21T00:17:46;0.70;89.80
68128;SHT30;54931;52.098;21.006;2023-11-21T00:20:14;0.69;89.73
68128;SHT30;54931;52.098;21.006;2023-11-21T00:22:41;0.66;89.79
68128;SHT30;54931;52.098;21.006;2023-11-21T00:25:09;0.65;89.81
68128;SHT30;54931;52.098;21.006;2023-11-21T00:27:37;0.63;89.80
68128;SHT30;54931;52.098;21.006;2023-11-21T00:30:05;0.61;89.78
68128;SHT30;54931;52.098;21.006;2023-11-21T00:32:35;0.61;89.83
68128;SHT30;54931;52.098;21.006;2023-11-21T00:35:05;0.60;89.84
68128;SHT30;54931;52.098;21.006;2023-11-21T00:37:33;0.58;89.82
68128;SHT30;54931;52.098;21.006;2023-11-21T00:40:01;0.57;89.90
68128;SHT30;54931;52.098;21.006;2023-11-21T00:42:32;0.56;89.98
68128;SHT30;54931;52.098;21.006;2023-11-21T00:45:00;0.57;89.91
68128;SHT30;54931;52.098;21.006;2023-11-21T00:47:28;0.54;89.90
68128;SHT30;54931;52.098;21.006;2023-11-21T00:49:56;0.54;89.91
68128;SHT30;54931;52.098;21.006;2023-11-21T00:52:24;0.53;89.97
68128;SHT30;54931;52.098;21.006;2023-11-21T00:54:54;0.52;89.92
68128;SHT30;54931;52.098;21.006;2023-11-21T00:57:21;0.53;89.96
68128;SHT30;54931;52.098;21.006;2023-11-21T00:59:49;0.51;89.90
68128;SHT30;54931;52.098;21.006;2023-11-21T01:02:16;0.49;89.90
68128;SHT30;54931;52.098;21.006;2023-11-21T01:04:44;0.48;89.90
68128;SHT30;54931;52.098;21.006;2023-11-21T01:07:11;0.49;89.96
68128;SHT30;54931;52.098;21.006;2023-11-21T01:09:40;0.49;89.95
68128;SHT30;54931;52.098;21.006;2023-11-21T01:12:07;0.49;89.87
68128;SHT30;54931;52.098;21.006;2023-11-21T01:14:35;0.44;89.72
68128;SHT30;54931;52.098;21.006;2023-11-21T01:17:04;0.40;89.68
68128;SHT30;54931;52.098;21.006;2023-11-21T01:19:32;0.40;89.80
68128;SHT30;54931;52.098;21.006;2023-11-21T01:21:59;0.39;89.82
68128;SHT30;54931;52.098;21.006;2023-11-21T01:24:27;0.36;89.74
68128;SHT30;54931;52.098;21.006;2023-11-21T01:26:54;0.32;89.62
68128;SHT30;54931;52.098;21.006;2023-11-21T01:29:22;0.28;89.69
68128;SHT30;54931;52.098;21.006;2023-11-21T01:31:50;0.27;89.70
68128;SHT30;54931;52.098;21.006;2023-11-21T01:34:18;0.24;89.72
68128;SHT30;54931;52.098;21.006;2023-11-21T01:36:46;0.23;89.80
68128;SHT30;54931;52.098;21.006;2023-11-21T01:39:14;0.22;89.90
68128;SHT30;54931;52.098;21.006;2023-11-21T01:41:43;0.21;89.88
68128;SHT30;54931;52.098;21.006;2023-11-21T01:44:13;0.20;89.82
68128;SHT30;54931;52.098;21.006;2023-11-21T01:46:41;0.18;89.80
68128;SHT30;54931;52.098;21.006;2023-11-21T01:49:09;0.15;89.81
68128;SHT30;54931;52.098;21.006;2023-11-21T01:51:41;0.15;89.83
68128;SHT30;54931;52.098;21.006;2023-11-21T01:54:12;0.14;89.90
68128;SHT30;54931;52.098;21.006;2023-11-21T01:56:40;0.13;89.90
68128;SHT30;54931;52.098;21.006;2023-11-21T01:59:07;0.11;89.89
68128;SHT30;54931;52.098;21.006;2023-11-21T02:01:35;0.10;89.99
68128;SHT30;54931;52.098;21.006;2023-11-21T02:04:03;0.12;90.00
68128;SHT30;54931;52.098;21.006;2023-11-21T02:06:30;0.11;89.96
68128;SHT30;54931;52.098;21.006;2023-11-21T02:08:58;0.08;89.88
68128;SHT30;54931;52.098;21.006;2023-11-21T02:11:26;0.07;89.86
68128;SHT30;54931;52.098;21.006;2023-11-21T02:13:59;0.05;89.86
68128;SHT30;54931;52.098;21.006;2023-11-21T02:16:27;0.06;89.90
68128;SHT30;54931;52.098;21.006;2023-11-21T02:18:58;0.05;89.88
68128;SHT30;54931;52.098;21.006;2023-11-21T02:21:27;0.06;89.90
68128;SHT30;54931;52.098;21.006;2023-11-21T02:23:55;0.08;89.80
68128;SHT30;54931;52.098;21.006;2023-11-21T02:26:23;0.14;89.73
68128;SHT30;54931;52.098;21.006;2023-11-21T02:28:52;0.16;89.72
68128;SHT30;54931;52.098;21.006;2023-11-21T02:31:20;0.17;89.61
68128;SHT30;54931;52.098;21.006;2023-11-21T02:33:48;0.16;89.61
68128;SHT30;54931;52.098;21.006;2023-11-21T02:36:15;0.17;89.69
68128;SHT30;54931;52.098;21.006;2023-11-21T02:38:42;0.16;89.70
68128;SHT30;54931;52.098;21.006;2023-11-21T02:41:10;0.14;89.68
68128;SHT30;54931;52.098;21.006;2023-11-21T02:43:37;0.15;89.73
68128;SHT30;54931;52.098;21.006;2023-11-21T02:46:05;0.15;89.81
68128;SHT30;54931;52.098;21.006;2023-11-21T02:48:33;0.17;89.82
68128;SHT30;54931;52.098;21.006;2023-11-21T02:51:01;0.13;89.62
68128;SHT30;54931;52.098;21.006;2023-11-21T02:53:29;0.11;89.64
68128;SHT30;54931;52.098;21.006;2023-11-21T02:55:56;0.10;89.73
68128;SHT30;54931;52.098;21.006;2023-11-21T02:58:24;0.10;89.72
68128;SHT30;54931;52.098;21.006;2023-11-21T03:00:52;0.10;89.74
68128;SHT30;54931;52.098;21.006;2023-11-21T03:03:21;0.08;89.66
68128;SHT30;54931;52.098;21.006;2023-11-21T03:05:51;0.05;89.60
68128;SHT30;54931;52.098;21.006;2023-11-21T03:08:18;0.01;89.47
68128;SHT30;54931;52.098;21.006;2023-11-21T03:10:46;-0.01;89.50
68128;SHT30;54931;52.098;21.006;2023-11-21T03:13:13;-0.03;89.40
68128;SHT30;54931;52.098;21.006;2023-11-21T03:15:41;-0.06;89.40
68128;SHT30;54931;52.098;21.006;2023-11-21T03:18:09;-0.07;89.44
68128;SHT30;54931;52.098;21.006;2023-11-21T03:20:36;-0.09;89.32
68128;SHT30;54931;52.098;21.006;2023-11-21T03:23:04;-0.12;89.27
68128;SHT30;54931;52.098;21.006;2023-11-21T03:25:32;-0.10;89.40
68128;SHT30;54931;52.098;21.006;2023-11-21T03:27:59;-0.09;89.51
68128;SHT30;54931;52.098;21.006;2023-11-21T03:30:27;-0.11;89.44
68128;SHT30;54931;52.098;21.006;2023-11-21T03:32:55;-0.13;89.40
68128;SHT30;54931;52.098;21.006;2023-11-21T03:35:23;-0.14;89.39
68128;SHT30;54931;52.098;21.006;2023-11-21T03:37:51;-0.15;89.39
68128;SHT30;54931;52.098;21.006;2023-11-21T03:40:19;-0.14;89.50
68128;SHT30;54931;52.098;21.006;2023-11-21T03:42:48;-0.14;89.51
68128;SHT30;54931;52.098;21.006;2023-11-21T03:45:16;-0.14;89.41
68128;SHT30;54931;52.098;21.006;2023-11-21T03:47:43;-0.15;89.33
68128;SHT30;54931;52.098;21.006;2023-11-21T03:50:11;-0.18;89.29
68128;SHT30;54931;52.098;21.006;2023-11-21T03:52:39;-0.20;89.28
68128;SHT30;54931;52.098;21.006;2023-11-21T03:55:06;-0.22;89.28
68128;SHT30;54931;52.098;21.006;2023-11-21T03:57:34;-0.24;89.33
68128;SHT30;54931;52.098;21.006;2023-11-21T04:00:03;-0.24;89.40
68128;SHT30;54931;52.098;21.006;2023-11-21T04:02:35;-0.24;89.36
68128;SHT30;54931;52.098;21.006;2023-11-21T04:05:03;-0.25;89.34
68128;SHT30;54931;52.098;21.006;2023-11-21T04:07:31;-0.25;89.31
68128;SHT30;54931;52.098;21.006;2023-11-21T04:10:05;-0.27;89.25
68128;SHT30;54931;52.098;21.006;2023-11-21T04:12:40;-0.28;89.30
68128;SHT30;54931;52.098;21.006;2023-11-21T04:15:08;-0.30;89.27
68128;SHT30;54931;52.098;21.006;2023-11-21T04:17:36;-0.31;89.27
68128;SHT30;54931;52.098;21.006;2023-11-21T04:20:04;-0.33;89.14
68128;SHT30;54931;52.098;21.006;2023-11-21T04:22:40;-0.34;89.27
68128;SHT30;54931;52.098;21.006;2023-11-21T04:25:11;-0.33;89.30
68128;SHT30;54931;52.098;21.006;2023-11-21T04:27:41;-0.36;89.16
68128;SHT30;54931;52.098;21.006;2023-11-21T04:30:11;-0.36;89.21
68128;SHT30;54931;52.098;21.006;2023-11-21T04:32:40;-0.36;89.24
68128;SHT30;54931;52.098;21.006;2023-11-21T04:35:11;-0.38;89.13
68128;SHT30;54931;52.098;21.006;2023-11-21T04:37:39;-0.43;88.98
68128;SHT30;54931;52.098;21.006;2023-11-21T04:40:07;-0.46;89.00
68128;SHT30;54931;52.098;21.006;2023-11-21T04:42:36;-0.47;89.09
68128;SHT30;54931;52.098;21.006;2023-11-21T04:45:05;-0.48;89.13
68128;SHT30;54931;52.098;21.006;2023-11-21T04:47:38;-0.51;89.10
68128;SHT30;54931;52.098;21.006;2023-11-21T04:50:06;-0.51;89.14
68128;SHT30;54931;52.098;21.006;2023-11-21T04:52:34;-0.53;89.09
68128;SHT30;54931;52.098;21.006;2023-11-21T04:55:02;-0.54;89.07
68128;SHT30;54931;52.098;21.006;2023-11-21T04:57:30;-0.56;88.96
68128;SHT30;54931;52.098;21.006;2023-11-21T04:59:57;-0.58;88.99
68128;SHT30;54931;52.098;21.006;2023-11-21T05:02:25;-0.59;88.94
68128;SHT30;54931;52.098;21.006;2023-11-21T05:04:55;-0.60;89.06
68128;SHT30;54931;52.098;21.006;2023-11-21T05:07:23;-0.58;89.19
68128;SHT30;54931;52.098;21.006;2023-11-21T05:09:51;-0.57;89.20
68128;SHT30;54931;52.098;21.006;2023-11-21T05:12:18;-0.57;89.29
68128;SHT30;54931;52.098;21.006;2023-11-21T05:14:46;-0.54;89.31
68128;SHT30;54931;52.098;21.006;2023-11-21T05:17:13;-0.53;89.31
68128;SHT30;54931;52.098;21.006;2023-11-21T05:19:41;-0.52;89.28
68128;SHT30;54931;52.098;21.006;2023-11-21T05:22:10;-0.55;89.02
68128;SHT30;54931;52.098;21.006;2023-11-21T05:24:39;-0.57;89.00
68128;SHT30;54931;52.098;21.006;2023-11-21T05:27:06;-0.60;88.98
68128;SHT30;54931;52.098;21.006;2023-11-21T05:29:33;-0.60;88.99
68128;SHT30;54931;52.098;21.006;2023-11-21T05:32:01;-0.63;88.81
68128;SHT30;54931;52.098;21.006;2023-11-21T05:34:29;-0.66;88.81
68128;SHT30;54931;52.098;21.006;2023-11-21T05:36:57;-0.69;88.82
68128;SHT30;54931;52.098;21.006;2023-11-21T05:39:25;-0.68;89.02
68128;SHT30;54931;52.098;21.006;2023-11-21T05:41:55;-0.64;89.25
68128;SHT30;54931;52.098;21.006;2023-11-21T05:44:22;-0.59;89.33
68128;SHT30;54931;52.098;21.006;2023-11-21T05:46:50;-0.56;89.30
68128;SHT30;54931;52.098;21.006;2023-11-21T05:49:18;-0.56;89.15
68128;SHT30;54931;52.098;21.006;2023-11-21T05:51:48;-0.56;89.03
68128;SHT30;54931;52.098;21.006;2023-11-21T05:54:16;-0.58;89.06
68128;SHT30;54931;52.098;21.006;2023-11-21T05:56:43;-0.57;89.18
68128;SHT30;54931;52.098;21.006;2023-11-21T05:59:11;-0.56;89.18
68128;SHT30;54931;52.098;21.006;2023-11-21T06:01:38;-0.57;89.18
68128;SHT30;54931;52.098;21.006;2023-11-21T06:04:06;-0.56;89.12
68128;SHT30;54931;52.098;21.006;2023-11-21T06:06:36;-0.57;89.12
68128;SHT30;54931;52.098;21.006;2023-11-21T06:09:04;-0.57;89.13
68128;SHT30;54931;52.098;21.006;2023-11-21T06:11:35;-0.58;89.14
68128;SHT30;54931;52.098;21.006;2023-11-21T06:14:03;-0.57;89.19
68128;SHT30;54931;52.098;21.006;2023-11-21T06:16:30;-0.57;89.18
68128;SHT30;54931;52.098;21.006;2023-11-21T06:18:59;-0.56;89.16
68128;SHT30;54931;52.098;21.006;2023-11-21T06:21:26;-0.56;89.06
68128;SHT30;54931;52.098;21.006;2023-11-21T06:23:54;-0.57;89.04
68128;SHT30;54931;52.098;21.006;2023-11-21T06:26:24;-0.58;88.98
68128;SHT30;54931;52.098;21.006;2023-11-21T06:28:52;-0.59;89.01
68128;SHT30;54931;52.098;21.006;2023-11-21T06:31:20;-0.59;89.00
68128;SHT30;54931;52.098;21.006;2023-11-21T06:33:48;-0.57;89.10
68128;SHT30;54931;52.098;21.006;2023-11-21T06:36:19;-0.57;89.01
68128;SHT30;54931;52.098;21.006;2023-11-21T06:38:47;-0.56;88.96
68128;SHT30;54931;52.098;21.006;2023-11-21T06:41:15;-0.58;88.64
68128;SHT30;54931;52.098;21.006;2023-11-21T06:43:42;-0.59;88.60
68128;SHT30;54931;52.098;21.006;2023-11-21T06:46:14;-0.61;88.58
68128;SHT30;54931;52.098;21.006;2023-11-21T06:48:42;-0.62;88.73
68128;SHT30;54931;52.098;21.006;2023-11-21T06:51:10;-0.59;88.83
68128;SHT30;54931;52.098;21.006;2023-11-21T06:53:38;-0.60;88.75
68128;SHT30;54931;52.098;21.006;2023-11-21T06:56:16;-0.60;88.61
68128;SHT30;54931;52.098;21.006;2023-11-21T06:58:46;-0.61;88.54
68128;SHT30;54931;52.098;21.006;2023-11-21T07:01:14;-0.59;88.70
68128;SHT30;54931;52.098;21.006;2023-11-21T07:03:42;-0.57;88.72
68128;SHT30;54931;52.098;21.006;2023-11-21T07:06:10;-0.58;88.70
68128;SHT30;54931;52.098;21.006;2023-11-21T07:08:38;-0.58;88.70
68128;SHT30;54931;52.098;21.006;2023-11-21T07:11:06;-0.59;88.62
68128;SHT30;54931;52.098;21.006;2023-11-21T07:13:34;-0.60;88.50
68128;SHT30;54931;52.098;21.006;2023-11-21T07:16:02;-0.61;88.40
68128;SHT30;54931;52.098;21.006;2023-11-21T07:18:31;-0.62;88.43
68128;SHT30;54931;52.098;21.006;2023-11-21T07:20:59;-0.61;88.49
68128;SHT30;54931;52.098;21.006;2023-11-21T07:23:26;-0.62;88.48
68128;SHT30;54931;52.098;21.006;2023-11-21T07:25:54;-0.59;88.60
68128;SHT30;54931;52.098;21.006;2023-11-21T07:28:22;-0.58;88.61
68128;SHT30;54931;52.098;21.006;2023-11-21T07:30:51;-0.56;88.60
68128;SHT30;54931;52.098;21.006;2023-11-21T07:33:19;-0.56;88.56
68128;SHT30;54931;52.098;21.006;2023-11-21T07:35:48;-0.56;88.42
68128;SHT30;54931;52.098;21.006;2023-11-21T07:38:16;-0.57;88.31
68128;SHT30;54931;52.098;21.006;2023-11-21T07:40:44;-0.57;88.42
68128;SHT30;54931;52.098;21.006;2023-11-21T07:43:12;-0.57;88.43
68128;SHT30;54931;52.098;21.006;2023-11-21T07:45:40;-0.58;88.44
68128;SHT30;54931;52.098;21.006;2023-11-21T07:48:09;-0.57;88.60
68128;SHT30;54931;52.098;21.006;2023-11-21T07:50:37;-0.54;88.66
68128;SHT30;54931;52.098;21.006;2023-11-21T07:53:04;-0.53;88.62
68128;SHT30;54931;52.098;21.006;2023-11-21T07:55:33;-0.53;88.56
68128;SHT30;54931;52.098;21.006;2023-11-21T07:58:00;-0.51;88.67
68128;SHT30;54931;52.098;21.006;2023-11-21T08:00:28;-0.50;88.59
68128;SHT30;54931;52.098;21.006;2023-11-21T08:02:57;-0.50;88.56
68128;SHT30;54931;52.098;21.006;2023-11-21T08:05:25;-0.50;88.54
68128;SHT30;54931;52.098;21.006;2023-11-21T08:07:53;-0.49;88.54
68128;SHT30;54931;52.098;21.006;2023-11-21T08:10:21;-0.46;88.67
68128;SHT30;54931;52.098;21.006;2023-11-21T08:12:49;-0.43;88.73
68128;SHT30;54931;52.098;21.006;2023-11-21T08:15:18;-0.40;88.71
68128;SHT30;54931;52.098;21.006;2023-11-21T08:17:47;-0.39;88.60
68128;SHT30;54931;52.098;21.006;2023-11-21T08:20:15;-0.40;88.48
68128;SHT30;54931;52.098;21.006;2023-11-21T08:22:45;-0.39;88.51
68128;SHT30;54931;52.098;21.006;2023-11-21T08:25:15;-0.37;88.53
68128;SHT30;54931;52.098;21.006;2023-11-21T08:27:46;-0.37;88.50
68128;SHT30;54931;52.098;21.006;2023-11-21T08:30:14;-0.36;88.54
68128;SHT30;54931;52.098;21.006;2023-11-21T08:32:43;-0.32;88.61
68128;SHT30;54931;52.098;21.006;2023-11-21T08:35:11;-0.32;88.44
68128;SHT30;54931;52.098;21.006;2023-11-21T08:37:39;-0.29;88.49
68128;SHT30;54931;52.098;21.006;2023-11-21T08:40:07;-0.26;88.47
68128;SHT30;54931;52.098;21.006;2023-11-21T08:42:36;-0.26;88.36
68128;SHT30;54931;52.098;21.006;2023-11-21T08:45:05;-0.21;88.48
68128;SHT30;54931;52.098;21.006;2023-11-21T08:47:34;-0.21;88.15
68128;SHT30;54931;52.098;21.006;2023-11-21T08:50:04;-0.20;88.13
68128;SHT30;54931;52.098;21.006;2023-11-21T08:52:35;-0.18;88.32
68128;SHT30;54931;52.098;21.006;2023-11-21T08:55:04;-0.16;88.22
68128;SHT30;54931;52.098;21.006;2023-11-21T08:57:35;-0.15;88.15
68128;SHT30;54931;52.098;21.006;2023-11-21T09:00:04;-0.12;88.28
68128;SHT30;54931;52.098;21.006;2023-11-21T09:02:38;-0.12;88.12
68128;SHT30;54931;52.098;21.006;2023-11-21T09:05:09;-0.11;88.17
68128;SHT30;54931;52.098;21.006;2023-11-21T09:07:38;-0.10;88.16
68128;SHT30;54931;52.098;21.006;2023-11-21T09:10:09;-0.13;87.86
68128;SHT30;54931;52.098;21.006;2023-11-21T09:12:38;-0.17;87.73
68128;SHT30;54931;52.098;21.006;2023-11-21T09:15:07;-0.20;87.73
68128;SHT30;54931;52.098;21.006;2023-11-21T09:17:36;-0.19;87.79
68128;SHT30;54931;52.098;21.006;2023-11-21T09:20:05;-0.21;87.73
68128;SHT30;54931;52.098;21.006;2023-11-21T09:22:38;-0.23;87.64
68128;SHT30;54931;52.098;21.006;2023-11-21T09:25:05;-0.24;87.65
68128;SHT30;54931;52.098;21.006;2023-11-21T09:27:35;-0.22;87.89
68128;SHT30;54931;52.098;21.006;2023-11-21T09:30:05;-0.19;87.89
68128;SHT30;54931;52.098;21.006;2023-11-21T09:32:38;-0.17;87.78
68128;SHT30;54931;52.098;21.006;2023-11-21T09:35:05;-0.19;87.49
68128;SHT30;54931;52.098;21.006;2023-11-21T09:37:35;-0.22;87.21
68128;SHT30;54931;52.098;21.006;2023-11-21T09:40:05;-0.24;87.47
68128;SHT30;54931;52.098;21.006;2023-11-21T09:42:43;-0.21;87.64
68128;SHT30;54931;52.098;21.006;2023-11-21T09:45:28;-0.21;87.46
68128;SHT30;54931;52.098;21.006;2023-11-21T09:48:01;-0.18;87.56
68128;SHT30;54931;52.098;21.006;2023-11-21T09:50:29;-0.15;87.40
68128;SHT30;54931;52.098;21.006;2023-11-21T09:55:50;-0.04;87.60
68128;SHT30;54931;52.098;21.006;2023-11-21T09:58:20;0.04;87.49
68128;SHT30;54931;52.098;21.006;2023-11-21T10:00:55;0.14;87.35
68128;SHT30;54931;52.098;21.006;2023-11-21T10:03:24;0.24;87.14
68128;SHT30;54931;52.098;21.006;2023-11-21T10:05:53;0.33;87.08
68128;SHT30;54931;52.098;21.006;2023-11-21T10:08:31;0.46;87.21
68128;SHT30;54931;52.098;21.006;2023-11-21T10:11:01;0.54;86.57
68128;SHT30;54931;52.098;21.006;2023-11-21T10:13:34;0.60;86.42
68128;SHT30;54931;52.098;21.006;2023-11-21T10:16:04;0.65;85.96
68128;SHT30;54931;52.098;21.006;2023-11-21T10:18:42;0.74;86.11
68128;SHT30;54931;52.098;21.006;2023-11-21T10:21:13;0.83;85.63
68128;SHT30;54931;52.098;21.006;2023-11-21T10:23:42;0.88;84.99
68128;SHT30;54931;52.098;21.006;2023-11-21T10:26:12;0.92;85.01
68128;SHT30;54931;52.098;21.006;2023-11-21T10:28:55;0.98;84.96
68128;SHT30;54931;52.098;21.006;2023-11-21T10:31:28;1.00;84.37
68128;SHT30;54931;52.098;21.006;2023-11-21T10:34:14;1.01;84.36
68128;SHT30;54931;52.098;21.006;2023-11-21T10:36:43;0.99;83.85
68128;SHT30;54931;52.098;21.006;2023-11-21T10:39:19;0.99;84.13
68128;SHT30;54931;52.098;21.006;2023-11-21T10:41:50;1.05;84.23
68128;SHT30;54931;52.098;21.006;2023-11-21T10:44:19;1.08;84.13
68128;SHT30;54931;52.098;21.006;2023-11-21T10:46:51;1.05;82.91
68128;SHT30;54931;52.098;21.006;2023-11-21T10:49:24;1.06;83.50
68128;SHT30;54931;52.098;21.006;2023-11-21T10:51:54;1.07;83.68
68128;SHT30;54931;52.098;21.006;2023-11-21T10:54:23;1.06;83.69
68128;SHT30;54931;52.098;21.006;2023-11-21T10:57:00;1.02;83.48
68128;SHT30;54931;52.098;21.006;2023-11-21T10:59:30;0.96;83.41
68128;SHT30;54931;52.098;21.006;2023-11-21T11:01:58;0.88;83.30
68128;SHT30;54931;52.098;21.006;2023-11-21T11:04:30;0.83;83.55
68128;SHT30;54931;52.098;21.006;2023-11-21T11:07:01;0.84;83.95
68128;SHT30;54931;52.098;21.006;2023-11-21T11:09:30;0.83;83.77
68128;SHT30;54931;52.098;21.006;2023-11-21T11:12:03;0.79;83.63
68128;SHT30;54931;52.098;21.006;2023-11-21T11:14:32;0.79;83.96
68128;SHT30;54931;52.098;21.006;2023-11-21T11:17:00;0.82;84.01
68128;SHT30;54931;52.098;21.006;2023-11-21T11:19:29;0.83;84.18
68128;SHT30;54931;52.098;21.006;2023-11-21T11:36:06;0.68;83.90
68128;SHT30;54931;52.098;21.006;2023-11-21T11:38:47;0.66;83.90
68128;SHT30;54931;52.098;21.006;2023-11-21T11:41:26;0.71;84.10
68128;SHT30;54931;52.098;21.006;2023-11-21T11:44:01;0.75;83.74
68128;SHT30;54931;52.098;21.006;2023-11-21T11:46:40;0.78;83.73
68128;SHT30;54931;52.098;21.006;2023-11-21T11:49:27;0.83;83.80
68128;SHT30;54931;52.098;21.006;2023-11-21T11:55:08;0.77;83.77
68128;SHT30;54931;52.098;21.006;2023-11-21T11:57:40;0.75;83.90
68128;SHT30;54931;52.098;21.006;2023-11-21T12:00:13;0.67;83.34
68128;SHT30;54931;52.098;21.006;2023-11-21T12:02:55;0.58;83.31
68128;SHT30;54931;52.098;21.006;2023-11-21T12:05:26;0.51;83.47
68128;SHT30;54931;52.098;21.006;2023-11-21T12:07:55;0.46;83.65
68128;SHT30;54931;52.098;21.006;2023-11-21T12:10:25;0.39;83.94
68128;SHT30;54931;52.098;21.006;2023-11-21T12:12:58;0.35;84.27
68128;SHT30;54931;52.098;21.006;2023-11-21T12:15:39;0.31;84.54
68128;SHT30;54931;52.098;21.006;2023-11-21T12:18:08;0.29;84.64
68128;SHT30;54931;52.098;21.006;2023-11-21T12:20:35;0.28;84.56
68128;SHT30;54931;52.098;21.006;2023-11-21T12:23:05;0.27;84.49
68128;SHT30;54931;52.098;21.006;2023-11-21T12:25:35;0.26;84.54
68128;SHT30;54931;52.098;21.006;2023-11-21T12:28:03;0.25;84.44
68128;SHT30;54931;52.098;21.006;2023-11-21T12:30:36;0.21;84.32
68128;SHT30;54931;52.098;21.006;2023-11-21T12:33:04;0.19;84.39
68128;SHT30;54931;52.098;21.006;2023-11-21T12:35:35;0.17;84.47
68128;SHT30;54931;52.098;21.006;2023-11-21T12:38:03;0.17;84.60
68128;SHT30;54931;52.098;21.006;2023-11-21T12:40:32;0.17;84.45
68128;SHT30;54931;52.098;21.006;2023-11-21T12:43:00;0.15;84.39
68128;SHT30;54931;52.098;21.006;2023-11-21T12:45:31;0.12;84.33
68128;SHT30;54931;52.098;21.006;2023-11-21T12:48:07;0.07;84.27
68128;SHT30;54931;52.098;21.006;2023-11-21T12:50:35;0.01;84.47
68128;SHT30;54931;52.098;21.006;2023-11-21T12:53:05;-0.01;84.70
68128;SHT30;54931;52.098;21.006;2023-11-21T12:55:43;-0.02;84.85
68128;SHT30;54931;52.098;21.006;2023-11-21T12:58:17;-0.03;84.88
68128;SHT30;54931;52.098;21.006;2023-11-21T13:00:48;-0.04;84.87
68128;SHT30;54931;52.098;21.006;2023-11-21T13:03:17;-0.07;84.71
68128;SHT30;54931;52.098;21.006;2023-11-21T13:05:47;-0.09;84.88
68128;SHT30;54931;52.098;21.006;2023-11-21T13:08:22;-0.09;84.97
68128;SHT30;54931;52.098;21.006;2023-11-21T13:10:53;-0.11;84.95
68128;SHT30;54931;52.098;21.006;2023-11-21T13:13:23;-0.11;85.05
68128;SHT30;54931;52.098;21.006;2023-11-21T13:15:55;-0.12;85.12
68128;SHT30;54931;52.098;21.006;2023-11-21T13:18:31;-0.14;84.79
68128;SHT30;54931;52.098;21.006;2023-11-21T13:21:00;-0.17;84.67
68128;SHT30;54931;52.098;21.006;2023-11-21T13:23:36;-0.18;84.92
68128;SHT30;54931;52.098;21.006;2023-11-21T13:26:05;-0.17;85.02
68128;SHT30;54931;52.098;21.006;2023-11-21T13:28:33;-0.17;84.84
68128;SHT30;54931;52.098;21.006;2023-11-21T13:31:04;-0.18;84.82
68128;SHT30;54931;52.098;21.006;2023-11-21T13:33:58;-0.21;84.68
68128;SHT30;54931;52.098;21.006;2023-11-21T13:36:32;-0.22;84.80
68128;SHT30;54931;52.098;21.006;2023-11-21T13:39:02;-0.23;84.91
68128;SHT30;54931;52.098;21.006;2023-11-21T13:41:42;-0.23;84.88
68128;SHT30;54931;52.098;21.006;2023-11-21T13:44:10;-0.23;85.06
68128;SHT30;54931;52.098;21.006;2023-11-21T13:46:53;-0.24;85.12
68128;SHT30;54931;52.098;21.006;2023-11-21T13:49:24;-0.25;85.07
68128;SHT30;54931;52.098;21.006;2023-11-21T13:51:53;-0.28;85.15
68128;SHT30;54931;52.098;21.006;2023-11-21T13:54:22;-0.27;85.35
68128;SHT30;54931;52.098;21.006;2023-11-21T13:56:52;-0.29;85.35
68128;SHT30;54931;52.098;21.006;2023-11-21T13:59:20;-0.31;85.26
68128;SHT30;54931;52.098;21.006;2023-11-21T14:01:52;-0.32;85.37
68128;SHT30;54931;52.098;21.006;2023-11-21T14:04:20;-0.32;85.35
68128;SHT30;54931;52.098;21.006;2023-11-21T14:06:58;-0.34;85.46
68128;SHT30;54931;52.098;21.006;2023-11-21T14:09:28;-0.35;85.44
68128;SHT30;54931;52.098;21.006;2023-11-21T14:12:03;-0.38;85.30
68128;SHT30;54931;52.098;21.006;2023-11-21T14:14:33;-0.40;85.44
68128;SHT30;54931;52.098;21.006;2023-11-21T14:17:01;-0.41;85.45
68128;SHT30;54931;52.098;21.006;2023-11-21T14:19:34;-0.44;85.39
68128;SHT30;54931;52.098;21.006;2023-11-21T14:22:06;-0.45;85.48
68128;SHT30;54931;52.098;21.006;2023-11-21T14:24:37;-0.47;85.50
68128;SHT30;54931;52.098;21.006;2023-11-21T14:27:11;-0.47;85.48
68128;SHT30;54931;52.098;21.006;2023-11-21T14:29:38;-0.47;85.57
68128;SHT30;54931;52.098;21.006;2023-11-21T14:32:11;-0.49;85.34
68128;SHT30;54931;52.098;21.006;2023-11-21T14:34:42;-0.50;85.40
68128;SHT30;54931;52.098;21.006;2023-11-21T14:37:13;-0.50;85.48
68128;SHT30;54931;52.098;21.006;2023-11-21T14:39:41;-0.51;85.47
68128;SHT30;54931;52.098;21.006;2023-11-21T14:42:13;-0.52;85.50
68128;SHT30;54931;52.098;21.006;2023-11-21T14:44:42;-0.52;85.61
68128;SHT30;54931;52.098;21.006;2023-11-21T14:47:10;-0.51;85.68
68128;SHT30;54931;52.098;21.006;2023-11-21T14:49:43;-0.53;85.56
68128;SHT30;54931;52.098;21.006;2023-11-21T14:52:20;-0.54;85.61
68128;SHT30;54931;52.098;21.006;2023-11-21T14:55:01;-0.55;85.70
68128;SHT30;54931;52.098;21.006;2023-11-21T14:57:54;-0.56;85.67
68128;SHT30;54931;52.098;21.006;2023-11-21T15:00:21;-0.58;85.40
68128;SHT30;54931;52.098;21.006;2023-11-21T15:03:01;-0.60;85.58
68128;SHT30;54931;52.098;21.006;2023-11-21T15:05:31;-0.61;85.60
68128;SHT30;54931;52.098;21.006;2023-11-21T15:07:58;-0.62;85.59
68128;SHT30;54931;52.098;21.006;2023-11-21T15:10:41;-0.64;85.59
68128;SHT30;54931;52.098;21.006;2023-11-21T15:13:21;-0.65;85.39
68128;SHT30;54931;52.098;21.006;2023-11-21T15:15:51;-0.67;85.46
68128;SHT30;54931;52.098;21.006;2023-11-21T15:18:21;-0.68;85.47
68128;SHT30;54931;52.098;21.006;2023-11-21T15:20:49;-0.70;85.45
68128;SHT30;54931;52.098;21.006;2023-11-21T15:23:16;-0.72;85.35
68128;SHT30;54931;52.098;21.006;2023-11-21T15:25:45;-0.72;85.36
68128;SHT30;54931;52.098;21.006;2023-11-21T15:28:13;-0.75;85.30
68128;SHT30;54931;52.098;21.006;2023-11-21T15:30:40;-0.76;85.40
68128;SHT30;54931;52.098;21.006;2023-11-21T15:33:08;-0.76;85.45
68128;SHT30;54931;52.098;21.006;2023-11-21T15:35:36;-0.77;85.47
68128;SHT30;54931;52.098;21.006;2023-11-21T15:38:05;-0.78;85.47
68128;SHT30;54931;52.098;21.006;2023-11-21T15:40:34;-0.80;85.38
68128;SHT30;54931;52.098;21.006;2023-11-21T15:43:02;-0.81;85.45
68128;SHT30;54931;52.098;21.006;2023-11-21T15:45:30;-0.81;85.58
68128;SHT30;54931;52.098;21.006;2023-11-21T15:47:58;-0.81;85.49
68128;SHT30;54931;52.098;21.006;2023-11-21T15:50:27;-0.82;85.49
68128;SHT30;54931;52.098;21.006;2023-11-21T15:52:56;-0.81;85.61
68128;SHT30;54931;52.098;21.006;2023-11-21T15:55:24;-0.81;85.61
68128;SHT30;54931;52.098;21.006;2023-11-21T15:57:52;-0.82;85.40